createdAt,value
2019-05-25T00:04:14.667Z,2.92
2019-05-25T00:09:14.539Z,2.78
2019-05-25T00:14:14.503Z,1.18
2019-05-25T00:19:14.449Z,0.00
2019-05-25T00:24:14.424Z,0.14
2019-05-25T00:29:14.402Z,0.25
2019-05-25T00:34:14.277Z,0.30
2019-05-25T00:39:14.235Z,0.34
2019-05-25T00:44:14.218Z,0.36
2019-05-25T00:49:14.134Z,0.19
2019-05-25T00:54:27.070Z,0.18
2019-05-25T00:59:15.043Z,0.51
2019-05-25T01:04:13.966Z,0.11
2019-05-25T01:09:14.011Z,0.01
2019-05-25T01:14:13.846Z,0.00
2019-05-25T01:19:13.829Z,0.08
2019-05-25T01:24:13.736Z,0.64
2019-05-25T01:29:13.724Z,0.86
2019-05-25T01:34:13.748Z,0.69
2019-05-25T01:39:13.576Z,1.37
2019-05-25T01:44:13.562Z,2.44
2019-05-25T01:49:13.451Z,3.91
2019-05-25T01:54:13.413Z,4.96
2019-05-25T01:59:13.411Z,2.18
2019-05-25T02:04:13.351Z,0.86
2019-05-25T02:09:13.329Z,1.78
2019-05-25T02:14:13.271Z,1.06
2019-05-25T02:19:13.380Z,0.66
2019-05-25T02:24:13.285Z,0.37
2019-05-25T02:29:13.210Z,0.64
2019-05-25T02:34:13.098Z,1.30
2019-05-25T02:39:13.031Z,0.35
2019-05-25T02:44:12.935Z,0.89
2019-05-25T02:49:13.020Z,1.18
2019-05-25T02:54:13.018Z,0.94
2019-05-25T02:59:12.894Z,0.20
2019-05-25T03:04:12.880Z,0.14
2019-05-25T03:09:12.721Z,0.11
2019-05-25T03:14:12.735Z,0.05
2019-05-25T03:19:12.606Z,0.02
2019-05-25T03:24:12.472Z,0.00
2019-05-25T03:29:12.413Z,0.58
2019-05-25T03:34:12.598Z,0.83
2019-05-25T03:39:12.410Z,0.24
2019-05-25T03:44:12.356Z,0.28
2019-05-25T03:49:12.274Z,0.52
2019-05-25T03:54:12.238Z,0.06
2019-05-25T03:59:12.090Z,0.25
2019-05-25T04:04:12.024Z,0.01
2019-05-25T04:09:13.063Z,0.42
2019-05-25T04:14:12.002Z,0.26
2019-05-25T04:19:11.862Z,0.04
2019-05-25T04:24:11.914Z,0.75
2019-05-25T04:29:11.844Z,0.65
2019-05-25T04:34:11.739Z,0.38
2019-05-25T04:39:11.717Z,0.46
2019-05-25T04:44:11.776Z,0.06
2019-05-25T04:49:11.757Z,0.18
2019-05-25T04:54:13.525Z,0.10
2019-05-25T04:59:12.601Z,0.73
2019-05-25T05:04:11.491Z,0.19
2019-05-25T05:09:11.443Z,0.18
2019-05-25T05:14:11.324Z,0.30
2019-05-25T05:19:11.234Z,0.58
2019-05-25T05:24:11.167Z,0.94
2019-05-25T05:29:11.122Z,0.63
2019-05-25T05:34:11.012Z,0.69
2019-05-25T05:39:11.007Z,0.60
2019-05-25T05:44:11.064Z,0.14
2019-05-25T05:49:11.983Z,0.09
2019-05-25T05:54:11.037Z,0.09
2019-05-25T05:59:10.942Z,0.28
2019-05-25T06:04:10.982Z,0.03
2019-05-25T06:09:10.735Z,0.18
2019-05-25T06:14:10.686Z,0.30
2019-05-25T06:19:13.797Z,0.49
2019-05-25T06:24:10.581Z,0.59
2019-05-25T06:29:10.447Z,0.23
2019-05-25T06:34:10.374Z,0.46
2019-05-25T06:39:10.354Z,1.29
2019-05-25T06:44:10.283Z,1.20
2019-05-25T06:49:10.284Z,0.70
2019-05-25T06:54:10.314Z,2.18
2019-05-25T06:59:10.242Z,1.93
2019-05-25T07:04:10.305Z,1.02
2019-05-25T07:09:10.122Z,0.45
2019-05-25T07:14:09.977Z,1.18
2019-05-25T07:19:09.989Z,1.26
2019-05-25T07:24:09.940Z,2.13
2019-05-25T07:29:09.866Z,2.42
2019-05-25T07:34:09.774Z,2.01
2019-05-25T07:39:09.708Z,1.54
2019-05-25T07:44:09.808Z,1.37
2019-05-25T07:49:09.773Z,1.12
2019-05-25T07:54:09.570Z,0.74
2019-05-25T07:59:09.522Z,2.41
2019-05-25T08:04:09.492Z,2.86
2019-05-25T08:09:09.465Z,2.39
2019-05-25T08:14:09.525Z,3.38
2019-05-25T08:19:09.403Z,2.94
2019-05-25T08:24:09.333Z,2.00
2019-05-25T08:29:09.263Z,0.74
2019-05-25T08:34:09.480Z,1.19
2019-05-25T08:39:09.219Z,0.56
2019-05-25T08:44:09.124Z,2.85
2019-05-25T08:49:09.138Z,2.76
2019-05-25T08:54:09.085Z,0.87
2019-05-25T08:59:09.051Z,0.95
2019-05-25T09:04:08.959Z,1.44
2019-05-25T09:09:09.018Z,2.70
2019-05-25T09:14:08.919Z,2.66
2019-05-25T09:19:08.907Z,2.06
2019-05-25T09:24:08.819Z,2.70
2019-05-25T09:29:08.666Z,2.26
2019-05-25T09:34:08.657Z,4.42
2019-05-25T09:39:08.584Z,3.27
2019-05-25T09:44:08.566Z,2.82
2019-05-25T09:49:08.551Z,2.60
2019-05-25T09:54:08.751Z,3.25
2019-05-25T09:59:19.630Z,2.48
2019-05-25T10:04:09.448Z,2.31
2019-05-25T10:09:08.329Z,2.62
2019-05-25T10:14:08.350Z,4.86
2019-05-25T10:19:08.227Z,3.13
2019-05-25T10:24:08.236Z,3.98
2019-05-25T10:29:08.291Z,2.77
2019-05-25T10:34:08.257Z,4.07
2019-05-25T10:39:08.113Z,4.19
2019-05-25T10:44:08.051Z,3.53
2019-05-25T10:49:11.090Z,4.68
2019-05-25T10:54:07.946Z,3.30
2019-05-25T10:59:07.893Z,6.51
2019-05-25T11:04:07.946Z,5.19
2019-05-25T11:09:07.968Z,7.09
2019-05-25T11:14:07.809Z,4.36
2019-05-25T11:19:07.879Z,4.95
2019-05-25T11:24:07.844Z,4.82
2019-05-25T11:29:07.979Z,5.24
2019-05-25T11:34:07.772Z,6.54
2019-05-25T11:39:07.701Z,6.02
2019-05-25T11:44:07.705Z,6.34
2019-05-25T11:49:21.618Z,5.70
2019-05-25T11:54:08.536Z,6.74
2019-05-25T11:59:07.531Z,6.47
2019-05-25T12:04:07.687Z,3.92
2019-05-25T12:09:07.428Z,8.03
2019-05-25T12:14:07.483Z,5.15
2019-05-25T12:19:08.437Z,6.71
2019-05-25T12:24:07.350Z,4.70
2019-05-25T12:29:07.417Z,4.76
2019-05-25T12:34:07.297Z,5.77
2019-05-25T12:39:07.194Z,6.35
2019-05-25T12:44:07.172Z,6.45
2019-05-25T12:49:07.097Z,6.08
2019-05-25T12:54:07.090Z,5.69
2019-05-25T12:59:07.046Z,4.88
2019-05-25T13:04:07.095Z,5.74
2019-05-25T13:09:07.043Z,6.46
2019-05-25T13:14:14.484Z,6.74
2019-05-25T13:19:07.951Z,5.82
2019-05-25T13:24:06.933Z,4.58
2019-05-25T13:29:06.829Z,5.34
2019-05-25T13:34:06.739Z,7.28
2019-05-25T13:39:06.906Z,3.71
2019-05-25T13:44:06.691Z,6.85
2019-05-25T13:49:06.621Z,4.62
2019-05-25T13:54:06.641Z,4.62
2019-05-25T13:59:06.542Z,5.33
2019-05-25T14:04:06.592Z,6.64
2019-05-25T14:09:06.478Z,7.06
2019-05-25T14:14:06.429Z,5.32
2019-05-25T14:19:06.381Z,6.28
2019-05-25T14:24:06.390Z,6.14
2019-05-25T14:29:06.312Z,6.48
2019-05-25T14:34:06.270Z,5.73
2019-05-25T14:39:06.290Z,4.44
2019-05-25T14:44:06.167Z,3.74
2019-05-25T14:49:06.140Z,4.50
2019-05-25T14:54:06.073Z,5.10
2019-05-25T14:59:06.080Z,7.00
2019-05-25T15:04:06.120Z,5.31
2019-05-25T15:09:06.006Z,5.44
2019-05-25T15:14:06.221Z,4.78
2019-05-25T15:19:05.921Z,6.03
2019-05-25T15:24:06.003Z,3.77
2019-05-25T15:29:05.797Z,3.53
2019-05-25T15:34:06.239Z,4.98
2019-05-25T15:39:05.891Z,5.72
2019-05-25T15:44:05.685Z,4.99
2019-05-25T15:49:05.599Z,5.51
2019-05-25T15:54:10.147Z,5.94
2019-05-25T15:59:06.652Z,3.20
2019-05-25T16:04:05.623Z,4.02
2019-05-25T16:09:05.545Z,4.20
2019-05-25T16:14:07.559Z,4.65
2019-05-25T16:19:05.444Z,5.27
2019-05-25T16:24:08.027Z,5.43
2019-05-25T16:29:05.238Z,4.78
2019-05-25T16:34:05.243Z,4.21
2019-05-25T16:39:05.136Z,4.31
2019-05-25T16:44:05.103Z,4.69
2019-05-25T16:49:05.039Z,4.62
2019-05-25T16:54:04.999Z,4.09
2019-05-25T16:59:04.954Z,4.57
2019-05-25T17:04:04.954Z,5.80
2019-05-25T17:09:04.879Z,1.98
2019-05-25T17:14:04.809Z,4.57
2019-05-25T17:19:04.760Z,4.38
2019-05-25T17:24:04.734Z,3.58
2019-05-25T17:29:04.668Z,2.79
2019-05-25T17:34:04.645Z,3.70
2019-05-25T17:39:04.583Z,3.18
2019-05-25T17:44:04.552Z,1.28
2019-05-25T17:49:04.484Z,0.82
2019-05-25T17:54:04.472Z,1.23
2019-05-25T17:59:04.410Z,1.01
2019-05-25T18:04:07.740Z,0.89
2019-05-25T18:09:04.402Z,1.60
2019-05-25T18:14:04.402Z,1.94
2019-05-25T18:19:04.342Z,2.42
2019-05-25T18:24:04.367Z,0.27
2019-05-25T18:29:04.119Z,0.25
2019-05-25T18:34:04.089Z,0.86
2019-05-25T18:39:04.022Z,0.06
2019-05-25T18:44:04.036Z,0.27
2019-05-25T18:49:03.996Z,0.02
2019-05-25T18:54:03.929Z,0.39
2019-05-25T18:59:03.858Z,0.50
2019-05-25T19:04:03.791Z,0.37
2019-05-25T19:09:03.780Z,0.00
2019-05-25T19:14:03.681Z,0.01
2019-05-25T19:19:03.864Z,0.01
2019-05-25T19:24:03.659Z,0.00
2019-05-25T19:29:05.646Z,0.00
2019-05-25T19:34:03.484Z,0.00
2019-05-25T19:39:03.341Z,0.00
2019-05-25T19:44:03.255Z,0.02
2019-05-25T19:49:03.227Z,0.02
2019-05-25T19:54:03.146Z,0.04
2019-05-25T19:59:03.112Z,0.00
2019-05-25T20:04:03.082Z,0.00
2019-05-25T20:09:03.014Z,0.00
2019-05-25T20:14:02.914Z,0.00
2019-05-25T20:19:02.895Z,0.00
2019-05-25T20:24:02.922Z,0.01
2019-05-25T20:29:02.797Z,0.00
2019-05-25T20:34:02.697Z,0.00
2019-05-25T20:39:02.687Z,0.02
2019-05-25T20:44:02.612Z,0.01
2019-05-25T20:49:02.548Z,0.01
2019-05-25T20:54:02.532Z,0.01
2019-05-25T20:59:02.450Z,0.00
2019-05-25T21:04:02.374Z,0.00
2019-05-25T21:09:02.346Z,0.00
2019-05-25T21:14:02.303Z,0.00
2019-05-25T21:19:03.107Z,0.01
2019-05-25T21:24:02.185Z,0.02
2019-05-25T21:29:02.103Z,0.00
2019-05-25T21:34:02.084Z,0.00
2019-05-25T21:39:02.006Z,0.00
2019-05-25T21:44:01.947Z,0.02
2019-05-25T21:49:01.902Z,0.01
2019-05-25T21:54:01.882Z,0.00
2019-05-25T21:59:01.783Z,0.00
2019-05-25T22:04:01.736Z,0.01
2019-05-25T22:09:01.664Z,0.01
2019-05-25T22:14:01.620Z,0.01
2019-05-25T22:19:01.595Z,0.01
2019-05-25T22:24:01.496Z,0.02
2019-05-25T22:29:01.443Z,0.04
2019-05-25T22:34:01.377Z,0.04
2019-05-25T22:39:01.374Z,1.23
2019-05-25T22:44:01.326Z,1.86
2019-05-25T22:49:01.287Z,2.37
2019-05-25T22:54:01.231Z,2.30
2019-05-25T22:59:01.122Z,3.34
2019-05-25T23:04:01.097Z,1.50
2019-05-25T23:09:01.039Z,1.67
2019-05-25T23:14:00.944Z,2.21
2019-05-25T23:19:00.944Z,1.77
2019-05-25T23:24:00.909Z,2.54
2019-05-25T23:29:00.813Z,1.21
2019-05-25T23:34:00.762Z,1.68
2019-05-25T23:39:00.701Z,2.37
2019-05-25T23:44:00.692Z,1.87
2019-05-25T23:49:00.612Z,1.51
2019-05-25T23:54:00.588Z,2.24
2019-05-25T23:59:00.512Z,2.19
